Map

Track Data

SID SEASON NUMBER BASIN SUBBASIN NAME ISO_TIME NATURE LAT LON WMO_WIND WMO_PRES WMO_AGENCY TRACK_TYPE DIST2LAND LANDFALL IFLAG USA_AGENCY USA_ATCF_ID USA_LAT USA_LON USA_RECORD USA_STATUS USA_WIND USA_PRES USA_SSHS USA_R34_NE USA_R34_SE USA_R34_SW USA_R34_NW USA_R50_NE USA_R50_SE USA_R50_SW USA_R50_NW USA_R64_NE USA_R64_SE USA_R64_SW USA_R64_NW USA_POCI USA_ROCI USA_RMW USA_EYE TOKYO_LAT TOKYO_LON TOKYO_GRADE TOKYO_WIND TOKYO_PRES TOKYO_R50_DIR TOKYO_R50_LONG TOKYO_R50_SHORT TOKYO_R30_DIR TOKYO_R30_LONG TOKYO_R30_SHORT TOKYO_LAND CMA_LAT CMA_LON CMA_CAT CMA_WIND CMA_PRES HKO_LAT HKO_LON HKO_CAT HKO_WIND HKO_PRES NEWDELHI_LAT NEWDELHI_LON NEWDELHI_GRADE NEWDELHI_WIND NEWDELHI_PRES NEWDELHI_CI NEWDELHI_DP NEWDELHI_POCI REUNION_LAT REUNION_LON REUNION_TYPE REUNION_WIND REUNION_PRES REUNION_TNUM REUNION_CI REUNION_RMW REUNION_R34_NE REUNION_R34_SE REUNION_R34_SW REUNION_R34_NW REUNION_R50_NE REUNION_R50_SE REUNION_R50_SW REUNION_R50_NW REUNION_R64_NE REUNION_R64_SE REUNION_R64_SW REUNION_R64_NW BOM_LAT BOM_LON BOM_TYPE BOM_WIND BOM_PRES BOM_TNUM BOM_CI BOM_RMW BOM_R34_NE BOM_R34_SE BOM_R34_SW BOM_R34_NW BOM_R50_NE BOM_R50_SE BOM_R50_SW BOM_R50_NW BOM_R64_NE BOM_R64_SE BOM_R64_SW BOM_R64_NW BOM_ROCI BOM_POCI BOM_EYE BOM_POS_METHOD BOM_PRES_METHOD NADI_LAT NADI_LON NADI_CAT NADI_WIND NADI_PRES WELLINGTON_LAT WELLINGTON_LON WELLINGTON_WIND WELLINGTON_PRES DS824_LAT DS824_LON DS824_STAGE DS824_WIND DS824_PRES TD9636_LAT TD9636_LON TD9636_STAGE TD9636_WIND TD9636_PRES TD9635_LAT TD9635_LON TD9635_WIND TD9635_PRES TD9635_ROCI NEUMANN_LAT NEUMANN_LON NEUMANN_CLASS NEUMANN_WIND NEUMANN_PRES MLC_LAT MLC_LON MLC_CLASS MLC_WIND MLC_PRES USA_GUST BOM_GUST BOM_GUST_PER REUNION_GUST REUNION_GUST_PER USA_SEAHGT USA_SEARAD_NE USA_SEARAD_SE USA_SEARAD_SW USA_SEARAD_NW STORM_SPEED STORM_DIR
1979312N25304 1979 107 NA NA NOT_NAMED 1979-11-07 12:00:00 TS 24.5000 -56.1000 20 hurdat_atl main 1195 1195 O_____________ hurdat_atl AL201979 24.5000 -56.1000 TD 20 -1 11 52
1979312N25304 1979 107 NA NA NOT_NAMED 1979-11-07 15:00:00 TS 24.8330 -55.6255 main 1256 1256 P_____________ AL201979 24.8330 -55.6255 TD 22 -1 11 49
1979312N25304 1979 107 NA NA NOT_NAMED 1979-11-07 18:00:00 TS 25.2000 -55.2000 25 hurdat_atl main 1314 1314 O_____________ hurdat_atl AL201979 25.2000 -55.2000 TD 25 -1 11 42
1979312N25304 1979 107 NA NA NOT_NAMED 1979-11-07 21:00:00 TS 25.6147 -54.8498 main 1372 1372 P_____________ AL201979 25.6147 -54.8498 TD 25 -1 10 38
1979312N25304 1979 107 NA NA NOT_NAMED 1979-11-08 00:00:00 TS 26.0000 -54.5000 25 hurdat_atl main 1422 1422 O_____________ hurdat_atl AL201979 26.0000 -54.5000 TD 25 -1 10 47
1979312N25304 1979 107 NA NA NOT_NAMED 1979-11-08 03:00:00 TS 26.2650 -54.0646 main 1474 1474 P_____________ AL201979 26.2650 -54.0646 TD 25 -1 10 58
1979312N25304 1979 107 NA NA NOT_NAMED 1979-11-08 06:00:00 TS 26.5000 -53.6000 25 hurdat_atl main 1528 1528 O_____________ hurdat_atl AL201979 26.5000 -53.6000 TD 25 -1 10 57
1979312N25304 1979 107 NA NA NOT_NAMED 1979-11-08 09:00:00 TS 26.7846 -53.1720 main 1579 1579 P_____________ AL201979 26.7846 -53.1720 TD 27 -1 10 53
1979312N25304 1979 107 NA NA NOT_NAMED 1979-11-08 12:00:00 TS 27.1000 -52.7000 30 hurdat_atl main 1639 1639 O_____________ hurdat_atl AL201979 27.1000 -52.7000 TD 30 -1 12 54
1979312N25304 1979 107 NA NA NOT_NAMED 1979-11-08 15:00:00 TS 27.4576 -52.1152 main 1713 1713 P_____________ AL201979 27.4576 -52.1152 TD 30 -1 13 57
1979312N25304 1979 107 NA NA NOT_NAMED 1979-11-08 18:00:00 TS 27.8000 -51.5000 30 hurdat_atl main 1781 1781 O_____________ hurdat_atl AL201979 27.8000 -51.5000 TD 30 -1 12 61
1979312N25304 1979 107 NA NA NOT_NAMED 1979-11-08 21:00:00 TS 28.0498 -50.9269 main 1842 1842 P_____________ AL201979 28.0498 -50.9269 TD 30 -1 11 63
1979312N25304 1979 107 NA NA NOT_NAMED 1979-11-09 00:00:00 TS 28.3000 -50.4000 30 hurdat_atl main 1902 1902 O_____________ hurdat_atl AL201979 28.3000 -50.4000 TD 30 -1 11 53
1979312N25304 1979 107 NA NA NOT_NAMED 1979-11-09 03:00:00 TS 28.6793 -49.9652 main 1959 1959 P_____________ AL201979 28.6793 -49.9652 TD 30 -1 11 48
1979312N25304 1979 107 NA NA NOT_NAMED 1979-11-09 06:00:00 TS 29.0000 -49.5000 30 hurdat_atl main 1985 1977 O_____________ hurdat_atl AL201979 29.0000 -49.5000 TD 30 -1 10 66
1979312N25304 1979 107 NA NA NOT_NAMED 1979-11-09 09:00:00 TS 29.0951 -48.8793 main 1983 1983 P_____________ AL201979 29.0951 -48.8793 TD 30 -1 11 85
1979312N25304 1979 107 NA NA NOT_NAMED 1979-11-09 12:00:00 TS 29.1000 -48.2000 30 hurdat_atl main 1996 1996 O_____________ hurdat_atl AL201979 29.1000 -48.2000 TD 30 -1 12 87
1979312N25304 1979 107 NA NA NOT_NAMED 1979-11-09 15:00:00 TS 29.1571 -47.5576 main 1997 1997 P_____________ AL201979 29.1571 -47.5576 TD 27 -1 11 85
1979312N25304 1979 107 NA NA NOT_NAMED 1979-11-09 18:00:00 TS 29.2000 -46.9000 25 hurdat_atl main 2012 2012 O_____________ hurdat_atl AL201979 29.2000 -46.9000 TD 25 -1 12 87
1979312N25304 1979 107 NA NA NOT_NAMED 1979-11-09 21:00:00 TS 29.2108 -46.2099 main 2030 2030 P_____________ AL201979 29.2108 -46.2099 TD 22 -1 12 90
1979312N25304 1979 107 NA NA NOT_NAMED 1979-11-10 00:00:00 TS 29.2000 -45.5000 20 hurdat_atl main 2048 O_____________ hurdat_atl AL201979 29.2000 -45.5000 TD 20 -1 12 91

About IBTrACS Database

This database is a web-friendly format of International Best Track Archive for Climate Stewardship (IBTrACS), a global best track data archive curated by NOAA dating back to 1842.

Updated: 2021-10-21